createdAt,value
2022-12-14T00:05:01.852Z,6.70
2022-12-14T00:10:05.156Z,7.53
2022-12-14T00:15:07.507Z,6.03
2022-12-14T00:20:09.727Z,7.68
2022-12-14T00:25:11.950Z,6.72
2022-12-14T00:30:15.549Z,7.70
2022-12-14T00:35:18.289Z,6.20
2022-12-14T00:40:20.430Z,7.32
2022-12-14T00:45:22.598Z,7.47
2022-12-14T00:50:24.756Z,7.03
2022-12-14T00:55:26.898Z,6.68
2022-12-14T01:00:29.023Z,6.78
2022-12-14T01:05:30.865Z,7.50
2022-12-14T01:10:34.260Z,6.50
2022-12-14T01:15:38.454Z,7.13
2022-12-14T01:20:41.590Z,7.40
2022-12-14T01:25:45.529Z,7.20
2022-12-14T01:30:50.711Z,8.13
2022-12-14T01:35:52.893Z,7.53
2022-12-14T01:40:59.646Z,8.05
2022-12-14T01:46:03.004Z,7.53
2022-12-14T01:51:05.203Z,8.23
2022-12-14T01:56:11.065Z,8.75
2022-12-14T02:01:18.262Z,8.10
2022-12-14T02:06:36.424Z,8.52
2022-12-14T02:11:46.745Z,7.60
2022-12-14T02:16:51.308Z,8.73
2022-12-14T02:22:32.516Z,8.85
2022-12-14T02:28:03.831Z,8.48
2022-12-14T02:33:32.820Z,9.18
2022-12-14T02:38:41.747Z,8.45
2022-12-14T02:43:55.534Z,9.43
2022-12-14T02:49:29.464Z,9.27
2022-12-14T02:54:58.577Z,9.02
2022-12-14T03:00:04.450Z,8.77
2022-12-14T03:05:06.815Z,9.20
2022-12-14T03:10:09.169Z,9.90
2022-12-14T03:15:14.938Z,9.00
2022-12-14T03:20:22.344Z,10.70
2022-12-14T03:25:35.362Z,9.77
2022-12-14T03:30:59.961Z,8.80
2022-12-14T03:36:30.068Z,9.70
2022-12-14T03:41:40.592Z,9.50
2022-12-14T03:47:01.050Z,10.00
2022-12-14T03:52:03.261Z,10.30
2022-12-14T03:57:32.771Z,10.50
2022-12-14T04:02:42.702Z,9.77
2022-12-14T04:07:57.472Z,10.10
2022-12-14T04:13:23.864Z,10.05
2022-12-14T04:18:59.102Z,10.77
2022-12-14T04:24:32.710Z,11.45
2022-12-14T04:29:56.811Z,10.07
2022-12-14T04:35:07.099Z,10.60
2022-12-14T04:40:17.402Z,12.30
2022-12-14T04:45:24.989Z,10.93
2022-12-14T04:50:30.796Z,12.20
2022-12-14T04:55:49.102Z,12.20
2022-12-14T05:01:16.408Z,11.65
2022-12-14T05:06:30.927Z,11.80
2022-12-14T05:12:06.194Z,10.70
2022-12-14T05:17:09.566Z,11.63
2022-12-14T05:22:11.605Z,12.10
2022-12-14T05:27:14.007Z,11.55
2022-12-14T05:32:16.421Z,11.70
2022-12-14T05:37:18.715Z,11.40
2022-12-14T05:42:20.641Z,11.60
2022-12-14T05:47:22.925Z,11.95
2022-12-14T05:52:26.334Z,12.13
2022-12-14T05:57:28.415Z,11.63
2022-12-14T06:02:30.796Z,13.48
2022-12-14T06:07:32.771Z,12.23
2022-12-14T06:12:34.905Z,11.80
2022-12-14T06:17:37.701Z,12.40
2022-12-14T06:22:45.756Z,12.68
2022-12-14T06:27:54.640Z,12.40
2022-12-14T06:32:56.823Z,13.20
2022-12-14T06:38:00.364Z,12.38
2022-12-14T06:43:02.490Z,12.43
2022-12-14T06:48:12.905Z,12.48
2022-12-14T06:53:15.196Z,13.13
2022-12-14T06:58:17.310Z,12.65
2022-12-14T07:03:26.856Z,12.90
2022-12-14T07:08:30.354Z,12.75
2022-12-14T07:13:37.573Z,12.70
2022-12-14T07:18:45.306Z,13.60
2022-12-14T07:23:49.675Z,13.00
2022-12-14T07:28:52.531Z,13.32
2022-12-14T07:33:57.674Z,14.07
2022-12-14T07:39:00.640Z,13.77
2022-12-14T07:44:04.624Z,13.65
2022-12-14T07:49:16.486Z,13.57
2022-12-14T07:54:21.758Z,15.65
2022-12-14T07:59:24.218Z,15.27
2022-12-14T08:04:26.014Z,15.65
2022-12-14T08:09:28.235Z,14.48
2022-12-14T08:14:30.344Z,14.88
2022-12-14T08:19:32.667Z,14.02
2022-12-14T08:24:34.411Z,15.52
2022-12-14T08:29:36.567Z,14.27
2022-12-14T08:34:40.148Z,13.57
2022-12-14T08:39:42.146Z,16.02
2022-12-14T08:44:43.919Z,14.48
2022-12-14T08:49:46.166Z,14.32
2022-12-14T08:54:54.749Z,16.10
2022-12-14T09:00:04.348Z,15.18
2022-12-14T09:05:06.821Z,14.57
2022-12-14T09:10:08.766Z,16.08
2022-12-14T09:15:11.838Z,15.63
2022-12-14T09:20:14.212Z,16.85
2022-12-14T09:25:16.007Z,16.63
2022-12-14T09:30:23.188Z,17.95
2022-12-14T09:35:28.122Z,17.42
2022-12-14T09:40:32.981Z,17.17
2022-12-14T09:45:45.075Z,17.67
2022-12-14T09:50:49.774Z,17.40
2022-12-14T09:55:55.594Z,16.73
2022-12-14T10:01:24.915Z,17.65
2022-12-14T10:06:42.303Z,17.48
2022-12-14T10:12:02.368Z,17.48
2022-12-14T10:17:15.839Z,16.25
2022-12-14T10:22:23.018Z,16.58
2022-12-14T10:27:27.333Z,16.45
2022-12-14T10:32:39.375Z,17.77
2022-12-14T10:37:48.793Z,17.08
2022-12-14T10:43:11.130Z,17.65
2022-12-14T10:48:29.137Z,18.25
2022-12-14T10:53:41.226Z,17.73
2022-12-14T10:58:43.735Z,18.50
2022-12-14T11:03:49.454Z,17.63
2022-12-14T11:08:51.747Z,17.42
2022-12-14T11:14:06.378Z,17.38
2022-12-14T11:19:27.055Z,16.92
2022-12-14T11:24:29.415Z,19.10
2022-12-14T11:29:34.608Z,18.48
2022-12-14T11:34:42.303Z,17.15
2022-12-14T11:39:44.599Z,18.08
2022-12-14T11:44:48.055Z,19.30
2022-12-14T11:49:55.553Z,17.65
2022-12-14T11:54:57.335Z,21.50
2022-12-14T12:00:18.488Z,21.90
2022-12-14T12:05:23.544Z,24.77
2022-12-14T12:10:50.221Z,22.25
2022-12-14T12:16:03.711Z,22.85
2022-12-14T12:21:10.127Z,22.05
2022-12-14T12:26:32.131Z,21.85
2022-12-14T12:31:40.739Z,18.73
2022-12-14T12:37:17.099Z,20.40
2022-12-14T12:42:20.662Z,19.40
2022-12-14T12:47:48.408Z,24.70
2022-12-14T12:53:14.872Z,21.08
2022-12-14T12:58:22.478Z,18.38
2022-12-14T13:03:44.467Z,19.75
2022-12-14T13:08:49.942Z,17.88
2022-12-14T13:14:01.247Z,19.52
2022-12-14T13:19:50.411Z,21.50
2022-12-14T13:24:57.055Z,19.67
2022-12-14T13:30:20.717Z,20.98
2022-12-14T13:35:57.769Z,21.23
2022-12-14T13:41:14.679Z,21.48
2022-12-14T13:46:22.707Z,22.15
2022-12-14T13:51:24.914Z,22.00
2022-12-14T13:56:33.539Z,20.77
2022-12-14T14:01:48.219Z,21.42
2022-12-14T14:06:52.217Z,20.50
2022-12-14T14:12:21.551Z,21.67
2022-12-14T14:17:39.995Z,20.95
2022-12-14T14:23:13.519Z,21.58
2022-12-14T14:28:22.772Z,21.98
2022-12-14T14:33:47.747Z,20.95
2022-12-14T14:38:50.990Z,20.98
2022-12-14T14:44:03.510Z,22.60
2022-12-14T14:49:16.798Z,25.23
2022-12-14T14:54:56.583Z,24.25
2022-12-14T15:04:57.166Z,22.48
2022-12-14T15:10:22.530Z,23.55
2022-12-14T15:15:45.423Z,22.88
2022-12-14T15:20:57.640Z,22.00
2022-12-14T15:26:02.378Z,24.15
2022-12-14T15:31:08.969Z,25.15
2022-12-14T15:36:19.642Z,23.95
2022-12-14T15:41:23.564Z,29.47
2022-12-14T15:46:33.669Z,22.60
2022-12-14T15:51:42.838Z,22.83
2022-12-14T15:56:53.422Z,41.92
2022-12-14T16:02:44.016Z,25.23
2022-12-14T16:07:58.140Z,27.67
2022-12-14T16:13:09.162Z,25.60
2022-12-14T16:18:14.002Z,34.28
2022-12-14T16:23:16.143Z,32.13
2022-12-14T16:28:31.134Z,25.27
2022-12-14T16:33:38.547Z,24.80
2022-12-14T16:39:03.775Z,21.92
2022-12-14T16:44:09.375Z,23.13
2022-12-14T16:49:34.192Z,22.58
2022-12-14T16:54:37.968Z,21.92
2022-12-14T16:59:45.756Z,22.02
2022-12-14T17:04:48.775Z,26.02
2022-12-14T17:09:51.002Z,20.88
2022-12-14T17:14:53.951Z,19.65
2022-12-14T17:19:56.437Z,18.73
2022-12-14T17:24:59.416Z,18.38
2022-12-14T17:30:05.756Z,21.10
2022-12-14T17:35:11.243Z,18.90
2022-12-14T17:40:15.738Z,18.95
2022-12-14T17:45:23.711Z,21.65
2022-12-14T17:50:26.229Z,22.45
2022-12-14T17:55:29.279Z,22.63
2022-12-14T18:00:50.370Z,21.30
2022-12-14T18:05:52.835Z,19.73
2022-12-14T18:11:01.697Z,25.10
2022-12-14T18:16:04.082Z,22.38
2022-12-14T18:21:32.227Z,21.23
2022-12-14T18:26:34.465Z,22.25
2022-12-14T18:31:38.161Z,23.27
2022-12-14T18:36:40.437Z,19.60
2022-12-14T18:41:42.595Z,19.00
2022-12-14T18:46:49.254Z,18.75
2022-12-14T18:51:51.685Z,20.35
2022-12-14T18:56:53.893Z,19.88
2022-12-14T19:01:56.099Z,20.30
2022-12-14T19:06:58.243Z,20.30
2022-12-14T19:12:00.339Z,20.80
2022-12-14T19:17:02.464Z,19.90
2022-12-14T19:22:04.679Z,18.17
2022-12-14T19:27:06.785Z,21.50
2022-12-14T19:32:08.925Z,18.23
2022-12-14T19:37:11.122Z,17.38
2022-12-14T19:42:13.920Z,19.25
2022-12-14T19:47:16.166Z,19.70
2022-12-14T19:52:18.319Z,18.23
2022-12-14T19:57:20.594Z,19.92
2022-12-14T20:02:22.936Z,18.23
2022-12-14T20:07:25.100Z,21.40
2022-12-14T20:12:27.234Z,23.55
2022-12-14T20:17:29.451Z,20.02
2022-12-14T20:22:31.553Z,19.67
2022-12-14T20:27:38.839Z,21.92
2022-12-14T20:32:42.675Z,22.30
2022-12-14T20:37:47.599Z,24.95
2022-12-14T20:42:49.318Z,24.63
2022-12-14T20:47:54.277Z,26.73
2022-12-14T20:52:55.933Z,30.95
2022-12-14T20:57:58.069Z,21.50
2022-12-14T21:03:00.343Z,22.92
2022-12-14T21:13:11.444Z,19.58
2022-12-14T21:18:20.130Z,19.38
2022-12-14T21:23:22.245Z,19.05
2022-12-14T21:28:27.510Z,19.10
2022-12-14T21:33:37.991Z,20.05
2022-12-14T21:38:40.176Z,18.85
2022-12-14T21:43:42.355Z,20.02
2022-12-14T21:48:52.917Z,22.38
2022-12-14T21:53:59.293Z,20.25
2022-12-14T21:59:01.109Z,22.08
2022-12-14T22:04:03.320Z,19.48
2022-12-14T22:09:06.076Z,21.33
2022-12-14T22:14:09.668Z,20.63
2022-12-14T22:19:19.557Z,21.67
2022-12-14T22:24:25.909Z,20.77
2022-12-14T22:29:30.337Z,20.92
2022-12-14T22:34:33.938Z,20.17
2022-12-14T22:39:37.660Z,20.20
2022-12-14T22:44:41.358Z,20.58
2022-12-14T22:49:48.916Z,20.05
2022-12-14T22:54:54.404Z,19.25
2022-12-14T23:00:07.889Z,20.65
2022-12-14T23:05:13.200Z,21.02
2022-12-14T23:10:34.464Z,20.48
2022-12-14T23:15:56.009Z,21.70
2022-12-14T23:21:16.463Z,22.23
2022-12-14T23:26:38.461Z,21.48
2022-12-14T23:31:58.905Z,20.42
2022-12-14T23:37:20.680Z,20.65
2022-12-14T23:42:41.415Z,21.15
2022-12-14T23:48:01.744Z,20.17
2022-12-14T23:53:27.179Z,20.00
2022-12-14T23:58:47.501Z,21.17
